Corea, ME (04624)

11:08 AM EDT on October 23, 2014 (GMT -0400)
Pigeon Hill | Change Station
CLOSE
Current Station
Personal Weather Station
Location: Steuben, ME
Elevation: 217 ft
Nearby Weather Stations

Elev 217 ft 44.46 °N, 67.89 °W | Updated 20 seconds ago

Rain
Rain
51.4 °F
Feels Like 51.4 °F
N
11.0
Wind Variable Wind from East
Gusts 23.0 mph

Today
High -- | Low -- °F
--% Chance of Precip.
Yesterday
High -- | Low -- °F
Precip. -- in
6:57 AM 5:34 PM
Waning Crescent, 0% visible
Pressure 29.86 in
Visibility 3.0 miles
Clouds Overcast 1000 ft
Dew Point 51 °F
Humidity 98%
Rainfall 1.19 in
Snow Depth Not available.
UV 1 out of 12
Pollen .10 out of 12
Ozone Good
PM2.5 Good
Flu Activity Sporadic
METAR KBHB 231455Z AUTO 05015G27KT 3SM OVC010 11/11 A2986 RMK AO1 P0015 60035 57010

More Conditions Fewer Conditions

Pressure 29.86 in
Visibility 3.0 miles
Clouds Overcast 1000 ft
Dew Point 51 °F
Humidity 98%
Rainfall 1.19 in
Snow Depth Not available.
UV 1 out of 12
Pollen .10 out of 12
Ozone Good
PM2.5 Good
Flu Activity Sporadic
METAR KBHB 231455Z AUTO 05015G27KT 3SM OVC010 11/11 A2986 RMK AO1 P0015 60035 57010

More Conditions Fewer Conditions

10-Day Weather Forecast

Almanac

Astronomy

Oct. 23, 2014 Rise Set
Actual Time 6:57 AM EDT 5:34 PM EDT
Civil Twilight 6:27 AM EDT 6:04 PM EDT
Nautical Twilight 5:53 AM EDT 6:38 PM EDT
Astronomical Twilight 5:19 AM EDT 7:11 PM EDT
Moon 6:32 AM EDT 5:34 PM EDT
Length of Visible Light 11h 36m
Length of Day
10h 37m
Tomorrow will be 2m 53s shorter.
Waning Crescent, 0% of the Moon is Illuminated
Today
Waning Crescent
Oct 23
New
Oct 30
First Quarter
Nov 6
Full
Nov 14
Last Quarter

Today's Extremes

State Highs State Lows

Community

WunderPhotos

Upload Photos

1,764,277 photos uploaded!

Nearby

Air Quality

  Air Quality AQ Index Pollutant
Yesterday Good
OZONE
Yesterday Good
PM2.5
Current Good
OZONE
Current Good
PM2.5
Thursday Good
OZONE
Thursday Good
PM2.5
Friday Good
OZONE
Friday Good
PM2.5
Saturday Good
OZONE
Saturday Good
PM2.5

Snow Depth

Station Depth Elevation
No new snow has been reported.

Earthquake Activity

City Distance Mag. Time & Date
No recent earthquake activity has been reported nearby.
Minimum magnitude displayed is 2.5.

Coastal Water Temperatures

Place Temperature
Eastport, ME 54.0 °F
Bar Harbor, ME 54.0 °F

Nearby Weather Stations